Time;durP1;ratioP1;P1;durP2;ratioP2;P2;SDS_P1;SDS_P2;PMS_P1;PMS_P2;Temp;Humidity;BMP_temperature;BMP_pressure;BME280_temperature;BME280_humidity;BME280_pressure;Samples;Min_cycle;Max_cycle;Signal;HPM_P1;HPM_P2
2024/01/23 00:01:18;;;;;;;12.83;3.83;;;6.70;99.90;;;;;;5044396;28;20444;-86
2024/01/23 00:03:44;;;;;;;14.70;3.80;;;6.70;99.90;;;;;;5040019;28;20273;-85
2024/01/23 00:06:11;;;;;;;15.23;3.23;;;6.70;99.90;;;;;;5042012;28;20768;-84
2024/01/23 00:08:38;;;;;;;17.30;3.50;;;6.70;99.90;;;;;;5043946;28;20868;-86
2024/01/23 00:11:07;;;;;;;15.57;3.87;;;6.70;99.90;;;;;;5045334;28;20230;-86
2024/01/23 00:13:33;;;;;;;13.47;3.60;;;6.70;99.90;;;;;;5021782;28;20286;-87
2024/01/23 00:16:00;;;;;;;13.87;3.50;;;6.70;99.90;;;;;;5038360;28;20226;-86
2024/01/23 00:18:27;;;;;;;10.33;2.90;;;6.80;99.90;;;;;;5037616;28;20312;-87
2024/01/23 00:20:54;;;;;;;11.47;3.70;;;6.70;99.90;;;;;;5044030;28;20230;-89
2024/01/23 00:23:21;;;;;;;15.50;3.60;;;6.80;99.90;;;;;;5041189;28;20326;-90
2024/01/23 00:25:48;;;;;;;18.87;3.87;;;6.80;99.90;;;;;;5042488;28;20637;-90
2024/01/23 00:28:17;;;;;;;13.27;3.60;;;6.80;99.90;;;;;;5037590;28;20252;-88
2024/01/23 00:30:44;;;;;;;14.57;3.20;;;6.80;99.90;;;;;;5038452;28;20310;-89
2024/01/23 00:33:11;;;;;;;14.23;3.30;;;6.80;99.90;;;;;;5035788;28;20230;-88
2024/01/23 00:35:38;;;;;;;15.43;3.77;;;6.80;99.90;;;;;;5030890;28;20227;-88
2024/01/23 00:38:06;;;;;;;17.03;3.90;;;6.80;99.90;;;;;;5039996;28;20223;-88
2024/01/23 00:40:33;;;;;;;11.10;3.10;;;6.80;99.90;;;;;;5039222;28;20227;-88
2024/01/23 00:43:00;;;;;;;14.10;3.40;;;6.80;99.90;;;;;;5044177;28;20326;-89
2024/01/23 00:45:28;;;;;;;17.93;4.07;;;6.80;99.90;;;;;;5040135;28;20225;-88
2024/01/23 00:47:55;;;;;;;16.83;3.77;;;6.80;99.90;;;;;;5032492;28;20250;-88
2024/01/23 00:50:23;;;;;;;15.47;4.53;;;6.80;99.90;;;;;;5043112;28;20235;-87
2024/01/23 00:52:50;;;;;;;12.70;3.30;;;6.80;99.90;;;;;;5045842;28;20244;-88
2024/01/23 15:27:44;;;;;;;22.17;5.40;;;6.90;99.90;;;;;;5092115;28;21001;-83
2024/01/23 15:30:11;;;;;;;21.97;5.47;;;6.90;99.90;;;;;;5065225;28;20234;-82
2024/01/23 15:32:38;;;;;;;20.87;5.73;;;6.80;99.90;;;;;;5087100;28;20229;-83
2024/01/23 15:35:05;;;;;;;18.57;5.33;;;6.90;99.90;;;;;;5064754;28;20259;-83
2024/01/23 15:37:32;;;;;;;21.00;5.40;;;6.80;99.90;;;;;;5082043;28;20249;-83
2024/01/23 15:39:59;;;;;;;19.67;5.00;;;6.70;99.90;;;;;;5079801;28;20253;-81
2024/01/23 15:42:26;;;;;;;20.83;5.30;;;6.70;99.90;;;;;;5049796;28;20216;-83
2024/01/23 15:44:54;;;;;;;22.60;6.40;;;6.70;99.90;;;;;;5070559;28;20316;-82
2024/01/23 15:47:21;;;;;;;18.00;5.00;;;6.70;99.90;;;;;;5086463;28;20294;-83
2024/01/23 15:49:48;;;;;;;26.50;5.53;;;6.70;99.90;;;;;;5070917;28;20229;-83
2024/01/23 15:52:15;;;;;;;23.40;5.10;;;6.70;99.90;;;;;;5090413;28;20695;-81
2024/01/23 15:54:42;;;;;;;25.93;5.70;;;6.60;99.90;;;;;;5068036;28;20260;-82
2024/01/23 15:57:09;;;;;;;25.93;5.40;;;6.60;99.90;;;;;;5050506;28;20962;-84
2024/01/23 15:59:35;;;;;;;17.60;5.07;;;6.70;99.90;;;;;;5064334;28;20238;-82
2024/01/23 16:02:04;;;;;;;20.90;5.37;;;6.50;99.90;;;;;;5065827;28;20229;-81
2024/01/23 16:04:31;;;;;;;18.90;5.07;;;6.50;99.90;;;;;;5076099;28;20228;-81
2024/01/23 16:06:58;;;;;;;18.10;5.80;;;6.40;99.90;;;;;;5071927;28;20229;-83
2024/01/23 16:09:24;;;;;;;27.13;5.30;;;6.40;99.90;;;;;;5077227;28;20251;-81
2024/01/23 16:11:51;;;;;;;22.43;6.17;;;6.30;99.90;;;;;;5069542;28;20307;-81
2024/01/23 16:14:18;;;;;;;21.30;5.93;;;6.20;99.90;;;;;;5073150;28;20256;-82
2024/01/23 16:16:45;;;;;;;16.97;5.00;;;6.20;99.90;;;;;;5067646;28;20221;-81
2024/01/23 16:19:13;;;;;;;23.67;5.43;;;6.10;99.90;;;;;;5061172;28;20308;-81
2024/01/23 16:21:40;;;;;;;20.17;6.23;;;6.10;99.90;;;;;;5082451;28;20229;-81
2024/01/23 16:24:07;;;;;;;20.77;5.70;;;6.10;99.90;;;;;;5069774;28;20242;-82
2024/01/23 16:26:34;;;;;;;21.63;5.87;;;6.00;99.90;;;;;;5071928;28;20231;-83
2024/01/23 16:29:02;;;;;;;17.50;5.50;;;6.00;99.90;;;;;;5061195;28;20221;-83
2024/01/23 16:31:29;;;;;;;19.33;5.37;;;5.90;99.90;;;;;;5084919;28;20296;-83
2024/01/23 16:33:55;;;;;;;19.90;6.33;;;5.90;99.90;;;;;;5071830;28;20746;-82
2024/01/23 16:36:24;;;;;;;22.50;7.07;;;5.90;99.90;;;;;;5078989;28;20232;-82
2024/01/23 16:38:52;;;;;;;21.00;5.83;;;5.90;99.90;;;;;;5054826;28;21090;-82
2024/01/23 16:41:19;;;;;;;21.50;5.90;;;5.90;99.90;;;;;;5069262;28;20224;-82
2024/01/23 16:43:46;;;;;;;19.33;5.43;;;5.80;99.90;;;;;;5055749;28;20240;-83
2024/01/23 16:46:13;;;;;;;18.10;5.30;;;5.80;99.90;;;;;;5064350;28;20312;-83
2024/01/23 16:48:40;;;;;;;21.30;5.13;;;5.80;99.90;;;;;;5059267;28;20268;-82
2024/01/23 16:51:07;;;;;;;20.23;5.47;;;5.80;99.90;;;;;;5063784;28;21064;-82
2024/01/23 16:53:35;;;;;;;56.17;33.63;;;5.70;99.90;;;;;;5067727;28;20224;-82
2024/01/23 16:56:02;;;;;;;50.90;26.17;;;5.70;99.90;;;;;;5066309;28;20683;-83
2024/01/23 16:58:29;;;;;;;21.73;6.43;;;5.70;99.90;;;;;;5083948;28;20223;-82
2024/01/23 17:00:56;;;;;;;59.80;42.27;;;5.70;99.90;;;;;;5062784;28;20215;-82
2024/01/23 17:03:23;;;;;;;33.70;17.43;;;5.60;99.90;;;;;;5057223;28;20269;-83
2024/01/23 17:05:50;;;;;;;37.63;17.07;;;5.60;99.90;;;;;;5076521;28;20301;-83
2024/01/23 17:08:16;;;;;;;17.37;7.43;;;5.60;99.90;;;;;;5065202;28;20997;-82
2024/01/23 17:10:44;;;;;;;17.57;4.60;;;5.60;99.90;;;;;;5075248;28;20259;-82
2024/01/23 17:13:11;;;;;;;21.30;5.63;;;5.60;99.90;;;;;;5078043;28;20276;-83
2024/01/23 17:15:38;;;;;;;23.43;4.57;;;5.60;99.90;;;;;;5063858;28;20312;-83
2024/01/23 17:18:06;;;;;;;23.90;5.90;;;5.60;99.90;;;;;;5065600;28;20212;-83
2024/01/23 17:20:33;;;;;;;21.30;10.97;;;5.60;99.90;;;;;;5080017;28;20336;-83
2024/01/23 17:23:00;;;;;;;20.30;6.03;;;5.60;99.90;;;;;;5070701;28;20277;-83
2024/01/23 17:25:26;;;;;;;28.30;12.73;;;5.60;99.90;;;;;;5059596;28;20902;-83
2024/01/23 17:27:54;;;;;;;19.07;8.23;;;5.60;99.90;;;;;;5072786;28;20789;-84
2024/01/23 17:30:21;;;;;;;30.23;11.57;;;5.70;99.90;;;;;;5064228;28;20309;-82
2024/01/23 17:32:48;;;;;;;48.23;39.00;;;5.70;99.90;;;;;;5053573;28;20257;-83
2024/01/23 17:35:15;;;;;;;17.73;5.87;;;5.70;99.90;;;;;;5064130;28;20223;-82
2024/01/23 17:37:42;;;;;;;19.30;9.87;;;5.70;99.90;;;;;;5068620;28;20296;-79
2024/01/23 17:40:10;;;;;;;26.93;7.03;;;5.70;99.90;;;;;;5065588;28;20247;-80
2024/01/23 17:42:36;;;;;;;31.73;14.87;;;5.70;99.90;;;;;;5060135;28;20232;-80
2024/01/23 17:45:06;;;;;;;21.10;6.77;;;5.70;99.90;;;;;;5086698;28;20259;-80
2024/01/23 17:47:32;;;;;;;34.27;15.53;;;5.70;99.90;;;;;;5061799;28;20585;-80
2024/01/23 17:49:59;;;;;;;18.13;5.50;;;5.70;99.90;;;;;;5073615;28;20331;-80
2024/01/23 17:52:27;;;;;;;22.60;9.97;;;5.70;99.90;;;;;;5067793;28;20227;-79
2024/01/23 17:54:54;;;;;;;21.00;6.03;;;5.60;99.90;;;;;;5085408;28;20230;-80
2024/01/23 17:57:21;;;;;;;41.13;17.37;;;5.60;99.90;;;;;;5089743;28;20595;-80
2024/01/23 17:59:48;;;;;;;21.27;6.97;;;5.60;99.90;;;;;;5075721;28;20251;-80
2024/01/23 18:02:16;;;;;;;38.00;19.17;;;5.60;99.90;;;;;;5093037;28;20222;-80
2024/01/23 18:04:43;;;;;;;24.13;9.97;;;5.60;99.90;;;;;;5083834;28;20556;-79
2024/01/23 18:07:10;;;;;;;27.77;10.67;;;5.60;99.90;;;;;;5088532;28;20680;-80
2024/01/23 18:09:37;;;;;;;39.27;20.13;;;5.60;99.90;;;;;;5068279;28;20228;-81
2024/01/23 18:12:05;;;;;;;17.47;5.30;;;5.60;99.90;;;;;;5057022;28;20220;-80
2024/01/23 18:14:31;;;;;;;27.67;9.97;;;5.60;99.90;;;;;;5074092;28;20553;-80
2024/01/23 18:16:58;;;;;;;27.17;7.07;;;5.60;99.90;;;;;;5072306;28;20228;-80
2024/01/23 18:19:26;;;;;;;63.13;32.50;;;5.50;99.90;;;;;;5069778;28;20306;-80
2024/01/23 18:21:53;;;;;;;61.67;32.83;;;5.50;99.90;;;;;;5080228;28;20224;-80
2024/01/23 18:24:19;;;;;;;27.63;10.87;;;5.50;99.90;;;;;;5094723;28;20729;-81
2024/01/23 18:26:46;;;;;;;22.00;5.53;;;5.50;99.90;;;;;;5089960;28;20254;-80
2024/01/23 18:29:13;;;;;;;25.33;8.83;;;5.50;99.90;;;;;;5086350;28;20230;-81
2024/01/23 18:31:40;;;;;;;18.17;5.97;;;5.50;99.90;;;;;;5094410;28;20242;-81
2024/01/23 18:34:07;;;;;;;24.43;5.00;;;5.50;99.90;;;;;;5070832;28;20226;-81
2024/01/23 18:36:35;;;;;;;22.33;5.10;;;5.50;99.90;;;;;;5082087;28;20224;-80
2024/01/23 18:39:02;;;;;;;15.50;4.97;;;5.60;99.90;;;;;;5070053;28;20711;-79
2024/01/23 18:41:28;;;;;;;18.70;4.70;;;5.60;99.90;;;;;;5062810;28;20681;-81
2024/01/23 18:43:55;;;;;;;17.67;4.80;;;5.60;99.90;;;;;;5068725;28;20259;-81
2024/01/23 18:46:22;;;;;;;21.13;5.47;;;5.70;99.90;;;;;;5072677;28;20315;-81
2024/01/23 18:48:48;;;;;;;22.90;4.23;;;5.70;99.90;;;;;;5062994;28;20224;-80
2024/01/23 18:51:16;;;;;;;20.53;7.63;;;5.70;99.90;;;;;;5067366;28;20225;-80
2024/01/23 18:53:45;;;;;;;18.20;9.27;;;5.80;99.90;;;;;;5066046;28;20244;-80
2024/01/23 18:56:11;;;;;;;19.43;4.50;;;5.80;99.90;;;;;;5067317;28;20711;-81
2024/01/23 18:58:38;;;;;;;17.53;5.13;;;5.80;99.90;;;;;;5073694;28;20450;-81
2024/01/23 19:01:05;;;;;;;21.27;5.70;;;5.90;99.90;;;;;;5083569;28;20240;-81
2024/01/23 19:03:32;;;;;;;14.17;6.70;;;5.90;99.90;;;;;;5068411;28;20236;-81
2024/01/23 19:05:58;;;;;;;25.20;5.40;;;5.90;99.90;;;;;;5089349;28;20670;-81
2024/01/23 19:08:25;;;;;;;19.17;5.90;;;5.90;99.90;;;;;;5068392;28;20315;-80
2024/01/23 19:10:53;;;;;;;18.33;4.70;;;5.90;99.90;;;;;;5069261;28;20520;-81
2024/01/23 19:13:20;;;;;;;23.87;7.33;;;6.00;99.90;;;;;;5067956;28;20310;-81
2024/01/23 19:15:46;;;;;;;16.17;4.93;;;6.00;99.90;;;;;;5064515;28;20241;-91
2024/01/23 19:18:13;;;;;;;21.50;7.23;;;6.00;99.90;;;;;;5078632;28;20299;-88
2024/01/23 19:20:41;;;;;;;14.57;5.07;;;6.00;99.90;;;;;;5062674;28;20256;-84
2024/01/23 19:23:09;;;;;;;22.17;10.67;;;6.00;99.90;;;;;;5063533;28;20307;-88
2024/01/23 19:25:35;;;;;;;19.80;6.50;;;5.90;99.90;;;;;;5065090;28;20225;-86
2024/01/23 19:28:04;;;;;;;19.87;5.77;;;5.90;99.90;;;;;;5069163;28;20920;-85
2024/01/23 19:30:31;;;;;;;12.47;4.17;;;5.90;99.90;;;;;;5057694;28;20233;-85
2024/01/23 19:32:57;;;;;;;19.67;4.80;;;5.90;99.90;;;;;;5063682;28;20322;-85
2024/01/23 19:35:25;;;;;;;21.87;5.40;;;5.90;99.90;;;;;;5073133;28;20228;-83
2024/01/23 19:37:52;;;;;;;19.97;5.90;;;5.80;99.90;;;;;;5067029;28;20870;-84
2024/01/23 19:40:19;;;;;;;16.83;6.10;;;5.80;99.90;;;;;;5068048;28;20474;-85
2024/01/23 19:42:46;;;;;;;16.57;5.17;;;5.80;99.90;;;;;;5068656;28;20246;-85
2024/01/23 19:45:14;;;;;;;17.70;5.63;;;5.70;99.90;;;;;;5052611;28;20273;-85
2024/01/23 19:47:42;;;;;;;23.23;7.83;;;5.70;99.90;;;;;;5059583;28;20225;-85
2024/01/23 19:50:10;;;;;;;15.93;5.53;;;5.70;99.90;;;;;;5061684;28;20219;-87
2024/01/23 19:52:37;;;;;;;22.47;5.40;;;5.60;99.90;;;;;;5071071;28;20229;-85
2024/01/23 19:55:04;;;;;;;21.90;5.57;;;5.60;99.90;;;;;;5068447;28;20228;-86
2024/01/23 19:57:31;;;;;;;17.50;5.17;;;5.60;99.90;;;;;;5069379;28;20306;-85
2024/01/23 19:59:58;;;;;;;23.27;5.40;;;5.50;99.90;;;;;;5070974;28;20221;-86
2024/01/23 20:02:26;;;;;;;24.20;5.00;;;5.50;99.90;;;;;;5050588;28;20315;-86
2024/01/23 20:04:53;;;;;;;18.10;4.80;;;5.50;99.90;;;;;;5057102;28;20627;-84
2024/01/23 20:07:23;;;;;;;27.20;6.07;;;5.40;99.90;;;;;;5086234;28;20227;-86
2024/01/23 20:09:50;;;;;;;17.07;5.03;;;5.40;99.90;;;;;;5083954;28;20306;-85
2024/01/23 20:12:17;;;;;;;19.70;5.20;;;5.40;99.90;;;;;;5076301;28;20268;-84
2024/01/23 20:14:46;;;;;;;23.40;5.10;;;5.40;99.90;;;;;;5084013;28;20219;-84
